sensor_id;sensor_type;location;lat;lon;timestamp;pressure;altitude;pressure_sealevel;temperature;humidity
4199;BME280;2113;50.946;14.610;2023-03-16T00:00:32;97531.56;;;-4.20;95.03
4199;BME280;2113;50.946;14.610;2023-03-16T00:03:02;97540.06;;;-4.21;95.40
4199;BME280;2113;50.946;14.610;2023-03-16T00:05:30;97536.69;;;-4.21;95.35
4199;BME280;2113;50.946;14.610;2023-03-16T00:07:59;97537.38;;;-4.15;95.53
4199;BME280;2113;50.946;14.610;2023-03-16T00:10:27;97546.66;;;-4.11;95.90
4199;BME280;2113;50.946;14.610;2023-03-16T00:12:56;97545.66;;;-4.07;96.00
4199;BME280;2113;50.946;14.610;2023-03-16T00:15:24;97546.72;;;-4.14;96.51
4199;BME280;2113;50.946;14.610;2023-03-16T00:17:52;97549.19;;;-4.11;96.31
4199;BME280;2113;50.946;14.610;2023-03-16T00:20:22;97545.66;;;-4.07;96.50
4199;BME280;2113;50.946;14.610;2023-03-16T00:22:50;97545.56;;;-4.02;96.70
4199;BME280;2113;50.946;14.610;2023-03-16T00:25:18;97548.88;;;-3.99;96.55
4199;BME280;2113;50.946;14.610;2023-03-16T00:27:46;97545.50;;;-3.99;96.72
4199;BME280;2113;50.946;14.610;2023-03-16T00:30:15;97550.25;;;-3.85;96.91
4199;BME280;2113;50.946;14.610;2023-03-16T00:32:43;97553.63;;;-3.85;97.00
4199;BME280;2113;50.946;14.610;2023-03-16T00:35:11;97549.88;;;-3.72;96.76
4199;BME280;2113;50.946;14.610;2023-03-16T00:37:40;97546.31;;;-3.66;96.48
4199;BME280;2113;50.946;14.610;2023-03-16T00:40:10;97544.78;;;-3.72;96.07
4199;BME280;2113;50.946;14.610;2023-03-16T00:42:39;97544.59;;;-3.66;96.13
4199;BME280;2113;50.946;14.610;2023-03-16T00:45:09;97540.22;;;-3.61;95.98
4199;BME280;2113;50.946;14.610;2023-03-16T00:47:37;97549.56;;;-3.60;96.02
4199;BME280;2113;50.946;14.610;2023-03-16T00:50:06;97542.25;;;-3.73;95.89
4199;BME280;2113;50.946;14.610;2023-03-16T00:52:35;97544.00;;;-3.75;96.09
4199;BME280;2113;50.946;14.610;2023-03-16T00:55:06;97547.44;;;-3.76;96.48
4199;BME280;2113;50.946;14.610;2023-03-16T00:57:34;97547.94;;;-3.64;96.46
4199;BME280;2113;50.946;14.610;2023-03-16T01:00:03;97542.81;;;-3.62;96.27
4199;BME280;2113;50.946;14.610;2023-03-16T01:02:39;97547.91;;;-3.62;96.36
4199;BME280;2113;50.946;14.610;2023-03-16T01:05:08;97553.88;;;-3.63;96.42
4199;BME280;2113;50.946;14.610;2023-03-16T01:07:37;97557.34;;;-3.66;96.37
4199;BME280;2113;50.946;14.610;2023-03-16T01:10:08;97559.00;;;-3.63;96.49
4199;BME280;2113;50.946;14.610;2023-03-16T01:12:36;97557.34;;;-3.66;96.27
4199;BME280;2113;50.946;14.610;2023-03-16T01:15:05;97559.19;;;-3.69;96.43
4199;BME280;2113;50.946;14.610;2023-03-16T01:17:34;97555.69;;;-3.67;96.35
4199;BME280;2113;50.946;14.610;2023-03-16T01:20:02;97561.63;;;-3.66;96.66
4199;BME280;2113;50.946;14.610;2023-03-16T01:22:33;97554.88;;;-3.69;96.46
4199;BME280;2113;50.946;14.610;2023-03-16T01:25:02;97558.28;;;-3.68;96.71
4199;BME280;2113;50.946;14.610;2023-03-16T01:27:33;97559.00;;;-3.63;96.84
4199;BME280;2113;50.946;14.610;2023-03-16T01:30:02;97563.78;;;-3.51;96.72
4199;BME280;2113;50.946;14.610;2023-03-16T01:32:31;97563.84;;;-3.54;96.72
4199;BME280;2113;50.946;14.610;2023-03-16T01:35:00;97561.44;;;-3.59;96.58
4199;BME280;2113;50.946;14.610;2023-03-16T01:37:28;97559.72;;;-3.58;96.86
4199;BME280;2113;50.946;14.610;2023-03-16T01:40:00;97563.13;;;-3.58;96.56
4199;BME280;2113;50.946;14.610;2023-03-16T01:42:41;97568.31;;;-3.62;96.39
4199;BME280;2113;50.946;14.610;2023-03-16T01:48:13;97572.47;;;-3.58;96.52
4199;BME280;2113;50.946;14.610;2023-03-16T01:50:42;97566.56;;;-3.60;96.64
4199;BME280;2113;50.946;14.610;2023-03-16T01:53:10;97566.72;;;-3.66;96.71
4199;BME280;2113;50.946;14.610;2023-03-16T01:55:40;97569.28;;;-3.66;97.08
4199;BME280;2113;50.946;14.610;2023-03-16T01:58:11;97571.31;;;-3.79;97.15
4199;BME280;2113;50.946;14.610;2023-03-16T02:00:40;97566.19;;;-3.77;97.34
4199;BME280;2113;50.946;14.610;2023-03-16T02:03:20;97572.03;;;-3.74;97.69
4199;BME280;2113;50.946;14.610;2023-03-16T02:06:09;97571.94;;;-3.69;97.83
4199;BME280;2113;50.946;14.610;2023-03-16T02:08:46;97571.13;;;-3.71;97.40
4199;BME280;2113;50.946;14.610;2023-03-16T02:11:16;97571.28;;;-3.77;97.47
4199;BME280;2113;50.946;14.610;2023-03-16T02:14:02;97577.13;;;-3.72;97.46
4199;BME280;2113;50.946;14.610;2023-03-16T02:16:33;97574.53;;;-3.71;97.19
4199;BME280;2113;50.946;14.610;2023-03-16T02:19:02;97572.00;;;-3.72;97.47
4199;BME280;2113;50.946;14.610;2023-03-16T02:21:38;97568.72;;;-3.77;97.54
4199;BME280;2113;50.946;14.610;2023-03-16T02:24:09;97568.66;;;-3.74;97.37
4199;BME280;2113;50.946;14.610;2023-03-16T02:26:42;97584.84;;;-3.75;97.30
4199;BME280;2113;50.946;14.610;2023-03-16T02:29:24;97576.56;;;-3.83;97.30
4199;BME280;2113;50.946;14.610;2023-03-16T02:31:58;97579.97;;;-3.84;97.56
4199;BME280;2113;50.946;14.610;2023-03-16T02:34:28;97577.41;;;-3.83;97.36
4199;BME280;2113;50.946;14.610;2023-03-16T02:36:57;97577.53;;;-3.89;97.45
4199;BME280;2113;50.946;14.610;2023-03-16T02:39:27;97586.78;;;-3.85;97.63
4199;BME280;2113;50.946;14.610;2023-03-16T02:41:55;97591.19;;;-3.91;97.49
4199;BME280;2113;50.946;14.610;2023-03-16T02:44:26;97590.41;;;-3.94;97.55
4199;BME280;2113;50.946;14.610;2023-03-16T02:47:00;97585.34;;;-3.95;97.70
4199;BME280;2113;50.946;14.610;2023-03-16T02:49:33;97587.75;;;-3.89;97.65
4199;BME280;2113;50.946;14.610;2023-03-16T02:52:04;97589.66;;;-3.97;97.41
4199;BME280;2113;50.946;14.610;2023-03-16T02:54:33;97591.44;;;-4.01;97.59
4199;BME280;2113;50.946;14.610;2023-03-16T02:57:02;97592.09;;;-3.94;97.81
4199;BME280;2113;50.946;14.610;2023-03-16T02:59:31;97591.19;;;-3.91;97.68
4199;BME280;2113;50.946;14.610;2023-03-16T03:02:01;97591.44;;;-4.01;97.72
4199;BME280;2113;50.946;14.610;2023-03-16T03:04:30;97600.03;;;-4.05;98.09
4199;BME280;2113;50.946;14.610;2023-03-16T03:06:59;97588.81;;;-3.98;97.99
4199;BME280;2113;50.946;14.610;2023-03-16T03:09:41;97594.78;;;-3.99;97.90
4199;BME280;2113;50.946;14.610;2023-03-16T03:12:09;97596.72;;;-4.08;97.86
4199;BME280;2113;50.946;14.610;2023-03-16T03:14:38;97601.09;;;-4.13;97.88
4199;BME280;2113;50.946;14.610;2023-03-16T03:17:09;97601.28;;;-4.21;98.16
4199;BME280;2113;50.946;14.610;2023-03-16T03:19:39;97607.97;;;-4.17;98.27
4199;BME280;2113;50.946;14.610;2023-03-16T03:22:08;97607.78;;;-4.09;98.67
4199;BME280;2113;50.946;14.610;2023-03-16T03:24:36;97609.66;;;-3.82;99.12
4199;BME280;2113;50.946;14.610;2023-03-16T03:27:05;97611.81;;;-3.67;99.10
4199;BME280;2113;50.946;14.610;2023-03-16T03:29:35;97612.81;;;-3.71;98.71
4199;BME280;2113;50.946;14.610;2023-03-16T03:32:05;97605.16;;;-3.71;98.60
4199;BME280;2113;50.946;14.610;2023-03-16T03:34:35;97609.38;;;-3.70;98.60
4199;BME280;2113;50.946;14.610;2023-03-16T03:37:04;97604.03;;;-3.61;98.58
4199;BME280;2113;50.946;14.610;2023-03-16T03:39:33;97605.78;;;-3.63;98.67
4199;BME280;2113;50.946;14.610;2023-03-16T03:42:01;97613.53;;;-3.67;98.50
4199;BME280;2113;50.946;14.610;2023-03-16T03:44:31;97609.31;;;-3.68;98.48
4199;BME280;2113;50.946;14.610;2023-03-16T03:47:00;97609.41;;;-3.71;98.75
4199;BME280;2113;50.946;14.610;2023-03-16T03:49:30;97612.69;;;-3.68;98.83
4199;BME280;2113;50.946;14.610;2023-03-16T03:51:59;97606.72;;;-3.67;98.50
4199;BME280;2113;50.946;14.610;2023-03-16T03:54:30;97618.75;;;-3.70;98.77
4199;BME280;2113;50.946;14.610;2023-03-16T03:57:04;97619.69;;;-3.74;98.62
4199;BME280;2113;50.946;14.610;2023-03-16T03:59:33;97615.91;;;-3.60;98.53
4199;BME280;2113;50.946;14.610;2023-03-16T04:02:08;97616.97;;;-3.68;98.41
4199;BME280;2113;50.946;14.610;2023-03-16T04:04:42;97619.47;;;-3.67;98.58
4199;BME280;2113;50.946;14.610;2023-03-16T04:07:14;97620.56;;;-3.75;98.46
4199;BME280;2113;50.946;14.610;2023-03-16T04:09:43;97628.28;;;-3.78;98.69
4199;BME280;2113;50.946;14.610;2023-03-16T04:12:23;97628.28;;;-3.78;98.60
4199;BME280;2113;50.946;14.610;2023-03-16T04:14:52;97625.97;;;-3.87;98.60
4199;BME280;2113;50.946;14.610;2023-03-16T04:17:21;97630.47;;;-3.97;98.85
4199;BME280;2113;50.946;14.610;2023-03-16T04:19:51;97625.22;;;-3.91;98.82
4199;BME280;2113;50.946;14.610;2023-03-16T04:22:21;97630.13;;;-3.83;98.93
4199;BME280;2113;50.946;14.610;2023-03-16T04:24:50;97620.69;;;-3.81;98.75
4199;BME280;2113;50.946;14.610;2023-03-16T04:27:20;97629.41;;;-3.88;98.83
4199;BME280;2113;50.946;14.610;2023-03-16T04:29:48;97628.63;;;-3.92;98.60
4199;BME280;2113;50.946;14.610;2023-03-16T04:32:16;97628.50;;;-3.86;98.97
4199;BME280;2113;50.946;14.610;2023-03-16T04:34:45;97625.06;;;-3.85;98.93
4199;BME280;2113;50.946;14.610;2023-03-16T04:37:15;97625.16;;;-3.89;98.63
4199;BME280;2113;50.946;14.610;2023-03-16T04:39:45;97635.34;;;-3.88;98.80
4199;BME280;2113;50.946;14.610;2023-03-16T04:42:13;97630.28;;;-3.89;98.82
4199;BME280;2113;50.946;14.610;2023-03-16T04:44:42;97632.94;;;-3.94;99.03
4199;BME280;2113;50.946;14.610;2023-03-16T04:47:14;97642.41;;;-3.99;98.81
4199;BME280;2113;50.946;14.610;2023-03-16T04:49:43;97640.50;;;-3.91;98.68
4199;BME280;2113;50.946;14.610;2023-03-16T04:52:13;97642.19;;;-3.90;98.81
4199;BME280;2113;50.946;14.610;2023-03-16T04:54:41;97641.38;;;-3.92;98.82
4199;BME280;2113;50.946;14.610;2023-03-16T04:57:15;97642.28;;;-3.95;98.90
4199;BME280;2113;50.946;14.610;2023-03-16T04:59:47;97648.13;;;-3.89;98.81
4199;BME280;2113;50.946;14.610;2023-03-16T05:02:22;97649.94;;;-3.95;98.94
4199;BME280;2113;50.946;14.610;2023-03-16T05:04:51;97655.00;;;-3.93;98.83
4199;BME280;2113;50.946;14.610;2023-03-16T05:07:19;97646.56;;;-3.95;98.94
4199;BME280;2113;50.946;14.610;2023-03-16T05:09:51;97650.03;;;-3.98;98.93
4199;BME280;2113;50.946;14.610;2023-03-16T05:12:22;97646.69;;;-4.00;98.79
4199;BME280;2113;50.946;14.610;2023-03-16T05:14:55;97656.19;;;-4.06;98.95
4199;BME280;2113;50.946;14.610;2023-03-16T05:17:35;97653.81;;;-4.14;98.83
4199;BME280;2113;50.946;14.610;2023-03-16T05:20:05;97659.00;;;-4.18;98.78
4199;BME280;2113;50.946;14.610;2023-03-16T05:22:39;97655.59;;;-4.17;98.82
4199;BME280;2113;50.946;14.610;2023-03-16T05:25:19;97656.41;;;-4.15;98.67
4199;BME280;2113;50.946;14.610;2023-03-16T05:27:52;97661.59;;;-4.20;98.68
4199;BME280;2113;50.946;14.610;2023-03-16T05:30:31;97664.72;;;-4.09;98.57
4199;BME280;2113;50.946;14.610;2023-03-16T05:33:03;97658.66;;;-4.03;98.66
4199;BME280;2113;50.946;14.610;2023-03-16T05:35:32;97657.69;;;-3.98;98.58
4199;BME280;2113;50.946;14.610;2023-03-16T05:38:05;97667.91;;;-3.98;98.41
4199;BME280;2113;50.946;14.610;2023-03-16T05:40:37;97664.59;;;-4.03;98.52
4199;BME280;2113;50.946;14.610;2023-03-16T05:43:15;97661.78;;;-3.92;98.48
4199;BME280;2113;50.946;14.610;2023-03-16T05:45:48;97658.25;;;-3.85;98.10
4199;BME280;2113;50.946;14.610;2023-03-16T05:48:18;97656.31;;;-3.77;97.98
4199;BME280;2113;50.946;14.610;2023-03-16T05:50:53;97657.13;;;-3.75;97.87
4199;BME280;2113;50.946;14.610;2023-03-16T05:53:26;97657.66;;;-3.62;97.69
4199;BME280;2113;50.946;14.610;2023-03-16T05:56:02;97658.47;;;-3.60;97.56
4199;BME280;2113;50.946;14.610;2023-03-16T05:58:35;97669.47;;;-3.58;97.42
4199;BME280;2113;50.946;14.610;2023-03-16T06:01:06;97660.09;;;-3.58;97.45
4199;BME280;2113;50.946;14.610;2023-03-16T06:03:36;97668.47;;;-3.52;97.74
4199;BME280;2113;50.946;14.610;2023-03-16T06:06:07;97671.72;;;-3.46;97.43
4199;BME280;2113;50.946;14.610;2023-03-16T06:08:49;97673.91;;;-3.32;97.37
4199;BME280;2113;50.946;14.610;2023-03-16T06:11:19;97670.84;;;-3.14;96.77
4199;BME280;2113;50.946;14.610;2023-03-16T06:13:49;97680.28;;;-3.14;96.11
4199;BME280;2113;50.946;14.610;2023-03-16T06:16:17;97672.53;;;-3.13;95.78
4199;BME280;2113;50.946;14.610;2023-03-16T06:18:45;97672.34;;;-3.05;95.84
4199;BME280;2113;50.946;14.610;2023-03-16T06:21:14;97672.13;;;-2.98;95.48
4199;BME280;2113;50.946;14.610;2023-03-16T06:23:45;97673.59;;;-2.89;95.31
4199;BME280;2113;50.946;14.610;2023-03-16T06:26:13;97675.94;;;-2.81;94.50
4199;BME280;2113;50.946;14.610;2023-03-16T06:28:44;97681.94;;;-2.82;94.56
4199;BME280;2113;50.946;14.610;2023-03-16T06:31:14;97669.56;;;-2.67;94.37
4199;BME280;2113;50.946;14.610;2023-03-16T06:33:44;97669.47;;;-2.64;94.16
4199;BME280;2113;50.946;14.610;2023-03-16T06:36:12;97671.00;;;-2.58;93.42
4199;BME280;2113;50.946;14.610;2023-03-16T06:38:45;97679.47;;;-2.56;93.39
4199;BME280;2113;50.946;14.610;2023-03-16T06:41:33;97677.72;;;-2.54;93.54
4199;BME280;2113;50.946;14.610;2023-03-16T06:44:02;97683.59;;;-2.51;93.48
4199;BME280;2113;50.946;14.610;2023-03-16T06:46:36;97678.94;;;-2.38;93.35
4199;BME280;2113;50.946;14.610;2023-03-16T06:49:06;97676.19;;;-2.32;93.45
4199;BME280;2113;50.946;14.610;2023-03-16T06:51:35;97687.47;;;-2.09;93.72
4199;BME280;2113;50.946;14.610;2023-03-16T06:54:03;97683.28;;;-2.12;92.35
4199;BME280;2113;50.946;14.610;2023-03-16T06:56:35;97692.53;;;-2.08;92.50
4199;BME280;2113;50.946;14.610;2023-03-16T06:59:05;97695.69;;;-2.00;92.19
4199;BME280;2113;50.946;14.610;2023-03-16T07:01:36;97693.94;;;-1.98;92.88
4199;BME280;2113;50.946;14.610;2023-03-16T07:04:04;97691.19;;;-1.92;93.15
4199;BME280;2113;50.946;14.610;2023-03-16T07:06:33;97699.53;;;-1.87;91.63
4199;BME280;2113;50.946;14.610;2023-03-16T07:09:02;97697.69;;;-1.82;91.17
4199;BME280;2113;50.946;14.610;2023-03-16T07:11:31;97700.84;;;-1.73;90.36
4199;BME280;2113;50.946;14.610;2023-03-16T07:13:59;97700.44;;;-1.61;90.14
4199;BME280;2113;50.946;14.610;2023-03-16T07:16:30;97696.41;;;-1.42;89.74
4199;BME280;2113;50.946;14.610;2023-03-16T07:19:03;97698.75;;;0.69;82.84
4199;BME280;2113;50.946;14.610;2023-03-16T07:21:32;97692.94;;;4.65;65.27
4199;BME280;2113;50.946;14.610;2023-03-16T07:24:10;97678.13;;;7.42;54.90
4199;BME280;2113;50.946;14.610;2023-03-16T07:26:41;97674.34;;;8.69;49.56
4199;BME280;2113;50.946;14.610;2023-03-16T07:29:12;97668.88;;;11.77;42.32
4199;BME280;2113;50.946;14.610;2023-03-16T07:31:43;97660.06;;;15.06;36.06
4199;BME280;2113;50.946;14.610;2023-03-16T07:34:18;97651.38;;;17.95;30.40
4199;BME280;2113;50.946;14.610;2023-03-16T07:36:52;97644.16;;;21.09;25.89
4199;BME280;2113;50.946;14.610;2023-03-16T07:39:22;97635.72;;;22.17;23.85
4199;BME280;2113;50.946;14.610;2023-03-16T07:41:57;97637.84;;;21.32;24.09
4199;BME280;2113;50.946;14.610;2023-03-16T07:44:58;97641.50;;;19.05;25.59
4199;BME280;2113;50.946;14.610;2023-03-16T07:47:26;97625.25;;;22.16;24.49
4199;BME280;2113;50.946;14.610;2023-03-16T07:50:02;97632.09;;;21.56;22.51
4199;BME280;2113;50.946;14.610;2023-03-16T07:52:32;97646.38;;;15.20;29.78
4199;BME280;2113;50.946;14.610;2023-03-16T07:55:04;97660.03;;;14.44;32.80
4199;BME280;2113;50.946;14.610;2023-03-16T07:57:33;97655.31;;;15.53;30.83
4199;BME280;2113;50.946;14.610;2023-03-16T08:00:02;97664.91;;;13.28;33.97
4199;BME280;2113;50.946;14.610;2023-03-16T08:02:39;97662.81;;;15.40;31.15
4199;BME280;2113;50.946;14.610;2023-03-16T08:08:33;97661.22;;;14.68;33.32
4199;BME280;2113;50.946;14.610;2023-03-16T08:11:02;97654.84;;;14.70;32.34
4199;BME280;2113;50.946;14.610;2023-03-16T08:13:41;97669.63;;;13.25;33.94
4199;BME280;2113;50.946;14.610;2023-03-16T08:16:11;97666.75;;;11.40;37.77
4199;BME280;2113;50.946;14.610;2023-03-16T08:18:42;97672.25;;;12.57;37.07
4199;BME280;2113;50.946;14.610;2023-03-16T08:21:13;97657.59;;;13.78;34.30
4199;BME280;2113;50.946;14.610;2023-03-16T08:23:43;97667.66;;;12.30;35.35
4199;BME280;2113;50.946;14.610;2023-03-16T08:26:18;97665.75;;;13.29;34.01
4199;BME280;2113;50.946;14.610;2023-03-16T08:28:51;97668.56;;;11.19;37.98
4199;BME280;2113;50.946;14.610;2023-03-16T08:31:21;97672.72;;;10.14;39.96
4199;BME280;2113;50.946;14.610;2023-03-16T08:33:58;97672.69;;;10.48;37.93
4199;BME280;2113;50.946;14.610;2023-03-16T08:36:29;97684.81;;;10.38;39.33
4199;BME280;2113;50.946;14.610;2023-03-16T08:39:01;97677.66;;;12.06;35.85
4199;BME280;2113;50.946;14.610;2023-03-16T08:41:43;97682.13;;;11.85;35.61
4199;BME280;2113;50.946;14.610;2023-03-16T08:44:23;97697.34;;;11.08;37.78
4199;BME280;2113;50.946;14.610;2023-03-16T08:46:52;97689.47;;;10.23;40.07
4199;BME280;2113;50.946;14.610;2023-03-16T08:49:20;97697.88;;;9.48;39.03
4199;BME280;2113;50.946;14.610;2023-03-16T08:51:58;97706.41;;;9.28;38.90
4199;BME280;2113;50.946;14.610;2023-03-16T08:54:28;97709.59;;;8.38;43.52
4199;BME280;2113;50.946;14.610;2023-03-16T08:56:58;97713.47;;;8.07;44.13
4199;BME280;2113;50.946;14.610;2023-03-16T08:59:27;97709.91;;;7.71;46.48
4199;BME280;2113;50.946;14.610;2023-03-16T09:01:56;97721.38;;;6.52;46.36
4199;BME280;2113;50.946;14.610;2023-03-16T09:04:26;97718.97;;;7.78;45.56
4199;BME280;2113;50.946;14.610;2023-03-16T09:06:56;97714.75;;;9.09;39.24
4199;BME280;2113;50.946;14.610;2023-03-16T09:09:37;97710.69;;;9.40;41.75
4199;BME280;2113;50.946;14.610;2023-03-16T09:12:05;97710.50;;;9.19;39.42
4199;BME280;2113;50.946;14.610;2023-03-16T09:14:34;97713.59;;;8.54;40.20
4199;BME280;2113;50.946;14.610;2023-03-16T09:17:04;97706.03;;;10.44;38.67
4199;BME280;2113;50.946;14.610;2023-03-16T09:19:33;97696.16;;;10.80;38.28
4199;BME280;2113;50.946;14.610;2023-03-16T09:22:21;97698.25;;;10.97;35.45
4199;BME280;2113;50.946;14.610;2023-03-16T09:24:51;97691.69;;;13.32;31.88
4199;BME280;2113;50.946;14.610;2023-03-16T09:27:19;97686.22;;;13.72;30.06
4199;BME280;2113;50.946;14.610;2023-03-16T09:29:48;97689.72;;;12.28;33.41
4199;BME280;2113;50.946;14.610;2023-03-16T09:32:19;97688.81;;;12.08;33.02
4199;BME280;2113;50.946;14.610;2023-03-16T09:34:47;97687.81;;;13.82;31.88
4199;BME280;2113;50.946;14.610;2023-03-16T09:37:16;97690.25;;;12.31;33.51
4199;BME280;2113;50.946;14.610;2023-03-16T09:39:45;97701.44;;;11.42;32.92
4199;BME280;2113;50.946;14.610;2023-03-16T09:42:19;97699.97;;;11.28;35.49
4199;BME280;2113;50.946;14.610;2023-03-16T09:45:00;97707.19;;;11.36;34.70
4199;BME280;2113;50.946;14.610;2023-03-16T09:47:33;97701.03;;;14.00;29.03
4199;BME280;2113;50.946;14.610;2023-03-16T09:50:06;97706.06;;;13.37;32.86
4199;BME280;2113;50.946;14.610;2023-03-16T09:52:40;97719.81;;;12.53;33.53
4199;BME280;2113;50.946;14.610;2023-03-16T09:55:21;97716.38;;;12.62;31.99
4199;BME280;2113;50.946;14.610;2023-03-16T09:57:56;97716.56;;;13.18;30.33
4199;BME280;2113;50.946;14.610;2023-03-16T10:00:26;97713.31;;;12.47;33.12
4199;BME280;2113;50.946;14.610;2023-03-16T10:03:08;97726.34;;;10.41;36.57
4199;BME280;2113;50.946;14.610;2023-03-16T10:05:38;97715.69;;;11.28;35.00
4199;BME280;2113;50.946;14.610;2023-03-16T10:08:12;97712.66;;;13.12;30.45
4199;BME280;2113;50.946;14.610;2023-03-16T10:11:10;97708.69;;;14.21;31.62
4199;BME280;2113;50.946;14.610;2023-03-16T10:13:46;97710.25;;;14.41;28.49
4199;BME280;2113;50.946;14.610;2023-03-16T10:16:18;97706.06;;;14.48;28.76
4199;BME280;2113;50.946;14.610;2023-03-16T10:18:55;97707.84;;;12.89;32.64
4199;BME280;2113;50.946;14.610;2023-03-16T10:21:24;97713.44;;;11.45;33.26
4199;BME280;2113;50.946;14.610;2023-03-16T10:23:53;97721.56;;;8.88;42.02
4199;BME280;2113;50.946;14.610;2023-03-16T10:26:27;97728.34;;;6.91;45.68
4199;BME280;2113;50.946;14.610;2023-03-16T10:28:59;97728.69;;;7.11;48.01
4199;BME280;2113;50.946;14.610;2023-03-16T10:31:28;97717.06;;;8.42;44.44
4199;BME280;2113;50.946;14.610;2023-03-16T10:34:02;97719.91;;;8.27;42.53
4199;BME280;2113;50.946;14.610;2023-03-16T10:36:33;97712.59;;;9.49;40.14
4199;BME280;2113;50.946;14.610;2023-03-16T10:39:04;97701.81;;;9.87;38.86
4199;BME280;2113;50.946;14.610;2023-03-16T10:41:34;97694.19;;;9.29;42.66
4199;BME280;2113;50.946;14.610;2023-03-16T10:44:09;97692.41;;;10.29;37.36
4199;BME280;2113;50.946;14.610;2023-03-16T10:46:39;97686.47;;;11.23;34.02
4199;BME280;2113;50.946;14.610;2023-03-16T10:49:20;97689.81;;;11.56;35.64
4199;BME280;2113;50.946;14.610;2023-03-16T10:51:49;97686.84;;;12.40;37.10
4199;BME280;2113;50.946;14.610;2023-03-16T10:54:24;97683.34;;;11.81;36.43
4199;BME280;2113;50.946;14.610;2023-03-16T10:56:54;97705.47;;;9.62;39.96
4199;BME280;2113;50.946;14.610;2023-03-16T10:59:36;97700.25;;;9.51;41.46
4199;BME280;2113;50.946;14.610;2023-03-16T11:02:15;97693.06;;;9.09;41.88
4199;BME280;2113;50.946;14.610;2023-03-16T11:04:45;97698.72;;;8.68;38.36
4199;BME280;2113;50.946;14.610;2023-03-16T11:07:17;97694.41;;;8.55;43.68
4199;BME280;2113;50.946;14.610;2023-03-16T11:09:47;97692.91;;;8.40;43.57
4199;BME280;2113;50.946;14.610;2023-03-16T11:12:22;97697.22;;;9.11;38.21
4199;BME280;2113;50.946;14.610;2023-03-16T11:14:53;97688.16;;;9.50;40.16
4199;BME280;2113;50.946;14.610;2023-03-16T11:17:27;97682.72;;;9.87;40.16
4199;BME280;2113;50.946;14.610;2023-03-16T11:20:02;97686.63;;;9.37;38.57
4199;BME280;2113;50.946;14.610;2023-03-16T11:22:42;97685.44;;;9.41;38.08
4199;BME280;2113;50.946;14.610;2023-03-16T11:25:26;97679.53;;;9.83;37.09
4199;BME280;2113;50.946;14.610;2023-03-16T11:28:03;97687.25;;;9.96;38.72
4199;BME280;2113;50.946;14.610;2023-03-16T11:30:40;97694.22;;;8.94;38.21
4199;BME280;2113;50.946;14.610;2023-03-16T11:33:13;97684.84;;;9.48;43.12
4199;BME280;2113;50.946;14.610;2023-03-16T11:35:46;97675.59;;;9.89;38.70
4199;BME280;2113;50.946;14.610;2023-03-16T11:38:31;97682.22;;;10.26;35.75
4199;BME280;2113;50.946;14.610;2023-03-16T11:41:03;97672.16;;;10.11;34.24
4199;BME280;2113;50.946;14.610;2023-03-16T11:43:48;97680.16;;;9.07;37.00
4199;BME280;2113;50.946;14.610;2023-03-16T11:46:22;97669.63;;;9.09;33.98
4199;BME280;2113;50.946;14.610;2023-03-16T11:48:59;97662.09;;;9.39;37.45
4199;BME280;2113;50.946;14.610;2023-03-16T11:51:40;97674.25;;;9.16;34.63
4199;BME280;2113;50.946;14.610;2023-03-16T11:54:20;97657.59;;;9.52;36.68
4199;BME280;2113;50.946;14.610;2023-03-16T11:56:57;97648.78;;;10.52;37.03
4199;BME280;2113;50.946;14.610;2023-03-16T11:59:39;97651.25;;;10.65;30.89
4199;BME280;2113;50.946;14.610;2023-03-16T12:02:52;97644.53;;;9.97;32.73
4199;BME280;2113;50.946;14.610;2023-03-16T12:05:38;97659.09;;;8.04;33.40
4199;BME280;2113;50.946;14.610;2023-03-16T12:08:23;97646.56;;;9.26;34.62
4199;BME280;2113;50.946;14.610;2023-03-16T12:10:55;97643.06;;;10.26;33.98
4199;BME280;2113;50.946;14.610;2023-03-16T12:13:34;97645.56;;;10.60;32.65
4199;BME280;2113;50.946;14.610;2023-03-16T12:16:11;97633.66;;;11.09;36.37
4199;BME280;2113;50.946;14.610;2023-03-16T12:18:46;97636.25;;;10.46;37.09
4199;BME280;2113;50.946;14.610;2023-03-16T12:21:20;97651.72;;;9.04;33.42
4199;BME280;2113;50.946;14.610;2023-03-16T12:23:51;97634.38;;;9.49;35.71
4199;BME280;2113;50.946;14.610;2023-03-16T12:26:23;97630.22;;;9.58;38.22
4199;BME280;2113;50.946;14.610;2023-03-16T12:28:56;97637.50;;;10.09;34.40
4199;BME280;2113;50.946;14.610;2023-03-16T12:31:32;97630.63;;;10.19;32.78
4199;BME280;2113;50.946;14.610;2023-03-16T12:34:13;97636.84;;;9.29;38.97
4199;BME280;2113;50.946;14.610;2023-03-16T12:36:54;97639.34;;;9.41;33.75
4199;BME280;2113;50.946;14.610;2023-03-16T12:39:37;97638.84;;;8.33;34.13
4199;BME280;2113;50.946;14.610;2023-03-16T12:42:20;97643.31;;;9.01;32.29
4199;BME280;2113;50.946;14.610;2023-03-16T12:44:55;97631.44;;;8.85;30.38
4199;BME280;2113;50.946;14.610;2023-03-16T12:47:29;97633.03;;;9.10;33.18
4199;BME280;2113;50.946;14.610;2023-03-16T12:50:06;97629.81;;;8.96;35.04
4199;BME280;2113;50.946;14.610;2023-03-16T12:52:41;97619.41;;;9.96;33.55
4199;BME280;2113;50.946;14.610;2023-03-16T12:55:13;97623.91;;;9.05;37.40
4199;BME280;2113;50.946;14.610;2023-03-16T12:57:42;97621.56;;;9.24;37.69
4199;BME280;2113;50.946;14.610;2023-03-16T13:00:13;97613.16;;;9.54;36.47
4199;BME280;2113;50.946;14.610;2023-03-16T13:02:48;97620.50;;;9.26;35.49
4199;BME280;2113;50.946;14.610;2023-03-16T13:05:29;97616.56;;;8.64;38.12
4199;BME280;2113;50.946;14.610;2023-03-16T13:08:08;97618.31;;;8.52;38.09
4199;BME280;2113;50.946;14.610;2023-03-16T13:10:39;97620.09;;;8.51;36.31
4199;BME280;2113;50.946;14.610;2023-03-16T13:13:09;97623.53;;;8.87;37.90
4199;BME280;2113;50.946;14.610;2023-03-16T13:15:39;97631.59;;;8.12;36.82
4199;BME280;2113;50.946;14.610;2023-03-16T13:18:26;97621.00;;;8.74;41.60
4199;BME280;2113;50.946;14.610;2023-03-16T13:21:13;97614.91;;;9.20;35.55
4199;BME280;2113;50.946;14.610;2023-03-16T13:23:51;97609.44;;;8.07;37.93
4199;BME280;2113;50.946;14.610;2023-03-16T13:26:37;97619.09;;;8.41;42.32
4199;BME280;2113;50.946;14.610;2023-03-16T13:29:18;97610.13;;;8.45;43.05
4199;BME280;2113;50.946;14.610;2023-03-16T13:31:47;97609.41;;;8.78;38.32
4199;BME280;2113;50.946;14.610;2023-03-16T13:34:19;97615.06;;;8.72;39.83
4199;BME280;2113;50.946;14.610;2023-03-16T13:36:53;97612.50;;;8.83;36.56
4199;BME280;2113;50.946;14.610;2023-03-16T13:39:25;97596.19;;;9.48;36.50
4199;BME280;2113;50.946;14.610;2023-03-16T13:41:59;97597.38;;;9.22;36.80
4199;BME280;2113;50.946;14.610;2023-03-16T13:44:30;97599.97;;;8.53;37.52
4199;BME280;2113;50.946;14.610;2023-03-16T13:47:02;97610.56;;;8.15;35.55